Time;durP1;ratioP1;P1;durP2;ratioP2;P2;SDS_P1;SDS_P2;PMS_P1;PMS_P2;Temp;Humidity;BMP_temperature;BMP_pressure;BME280_temperature;BME280_humidity;BME280_pressure;Samples;Min_cycle;Max_cycle;Signal;HPM_P1;HPM_P2
2021/11/06 00:01:53;;;;;;;;;;;;;;;7.28;69.03;99187.06;1694542;84;24498;-84
2021/11/06 00:04:19;;;;;;;;;;;;;;;7.30;69.06;99185.24;1693317;84;20320;-84
2021/11/06 00:06:46;;;;;;;;;;;;;;;7.30;69.14;99179.19;1697530;84;24696;-86
2021/11/06 00:09:12;;;;;;;;;;;;;;;7.30;69.16;99177.89;1686481;84;21961;-85
2021/11/06 00:11:41;;;;;;;;;;;;;;;7.29;69.21;99177.04;1692791;84;26212;-86
2021/11/06 00:14:07;;;;;;;;;;;;;;;7.28;69.26;99174.05;1689426;84;24453;-86
2021/11/06 00:16:53;;;;;;;;;;;;;;;7.29;69.28;99176.19;1688863;84;20177;-86
2021/11/06 00:19:19;;;;;;;;;;;;;;;7.28;69.32;99174.50;1686080;84;24907;-86
2021/11/06 00:21:45;;;;;;;;;;;;;;;7.26;69.35;99178.45;1686569;84;22078;-86
2021/11/06 00:24:11;;;;;;;;;;;;;;;7.23;69.38;99176.01;1683364;84;21718;-86
2021/11/06 00:26:38;;;;;;;;;;;;;;;7.25;69.44;99179.40;1703246;84;24113;-86
2021/11/06 00:29:05;;;;;;;;;;;;;;;7.24;69.48;99179.45;1686650;84;20301;-86
2021/11/06 00:31:31;;;;;;;;;;;;;;;7.21;69.51;99177.82;1689727;84;24928;-86
2021/11/06 00:33:57;;;;;;;;;;;;;;;7.21;69.56;99174.38;1687579;84;21344;-86
2021/11/06 00:36:26;;;;;;;;;;;;;;;7.22;69.62;99178.22;1687104;84;26169;-86
2021/11/06 00:38:53;;;;;;;;;;;;;;;7.20;69.66;99171.41;1689708;84;24518;-86
2021/11/06 00:41:19;;;;;;;;;;;;;;;7.21;69.70;99187.38;1690117;83;20260;-86
2021/11/06 00:43:45;;;;;;;;;;;;;;;7.20;69.74;99185.72;1708308;82;24864;-86
2021/11/06 00:46:11;;;;;;;;;;;;;;;7.20;69.75;99184.42;1714297;82;21992;-86
2021/11/06 00:48:37;;;;;;;;;;;;;;;7.22;69.82;99187.78;1737572;81;26125;-86
2021/11/06 00:51:03;;;;;;;;;;;;;;;7.24;69.88;99182.91;1736262;82;24449;-86
2021/11/06 00:53:29;;;;;;;;;;;;;;;7.28;69.91;99192.72;1736260;81;20267;-85
2021/11/06 00:55:55;;;;;;;;;;;;;;;7.28;69.96;99179.25;1736201;81;24716;-85
2021/11/06 00:58:21;;;;;;;;;;;;;;;7.30;70.01;99181.80;1736379;81;21995;-84
2021/11/06 01:00:48;;;;;;;;;;;;;;;7.32;70.01;99182.55;1736158;81;25921;-84
2021/11/06 01:03:16;;;;;;;;;;;;;;;7.32;70.04;99187.75;1680361;83;24626;-84
2021/11/06 01:05:43;;;;;;;;;;;;;;;7.31;70.08;99186.91;1725371;81;20166;-84
2021/11/06 01:08:09;;;;;;;;;;;;;;;7.30;70.09;99194.36;1724962;82;25506;-85
2021/11/06 01:10:35;;;;;;;;;;;;;;;7.29;70.07;99197.02;1736372;81;22730;-85
2021/11/06 01:13:01;;;;;;;;;;;;;;;7.27;70.10;99188.42;1733847;81;26034;-85
2021/11/06 01:15:27;;;;;;;;;;;;;;;7.25;70.10;99192.87;1736296;81;24479;-85
2021/11/06 01:17:53;;;;;;;;;;;;;;;7.27;70.11;99203.59;1736100;81;20183;-85
2021/11/06 01:20:19;;;;;;;;;;;;;;;7.25;70.13;99195.02;1736249;81;20785;-85
2021/11/06 01:22:46;;;;;;;;;;;;;;;7.24;70.13;99198.53;1697748;82;22009;-84
2021/11/06 01:25:13;;;;;;;;;;;;;;;7.21;70.15;99195.20;1723586;83;25940;-85
2021/11/06 01:27:39;;;;;;;;;;;;;;;7.18;70.14;99198.80;1723329;83;24454;-85
2021/11/06 01:30:07;;;;;;;;;;;;;;;7.14;70.12;99196.80;1723562;83;20152;-85
2021/11/06 01:32:33;;;;;;;;;;;;;;;7.13;70.15;99193.80;1723638;83;24855;-86
2021/11/06 01:35:01;;;;;;;;;;;;;;;7.09;70.15;99189.61;1722497;83;22085;-85
2021/11/06 01:37:27;;;;;;;;;;;;;;;7.08;70.15;99189.25;1723499;83;26168;-85
2021/11/06 01:39:58;;;;;;;;;;;;;;;7.05;70.17;99188.06;1723514;82;24409;-85
2021/11/06 01:42:21;;;;;;;;;;;;;;;7.03;70.17;99189.91;1722820;81;20216;-85
2021/11/06 01:44:47;;;;;;;;;;;;;;;7.00;70.17;99191.78;1723522;83;20740;-84
2021/11/06 01:47:13;;;;;;;;;;;;;;;6.94;70.17;99191.59;1735671;81;22762;-85
2021/11/06 01:49:39;;;;;;;;;;;;;;;6.92;70.17;99191.28;1735971;81;26038;-85
2021/11/06 01:52:06;;;;;;;;;;;;;;;6.87;70.18;99192.78;1736150;81;24496;-84
2021/11/06 01:54:33;;;;;;;;;;;;;;;6.85;70.19;99199.80;1700440;83;20157;-85
2021/11/06 01:57:00;;;;;;;;;;;;;;;6.80;70.21;99197.84;1718853;82;24724;-85
2021/11/06 01:59:26;;;;;;;;;;;;;;;6.78;70.22;99204.02;1705184;84;21971;-84
2021/11/06 02:01:52;;;;;;;;;;;;;;;6.76;70.24;99197.59;1736838;81;26753;-84
2021/11/06 02:04:18;;;;;;;;;;;;;;;6.77;70.25;99201.02;1722847;82;24675;-86
2021/11/06 02:06:45;;;;;;;;;;;;;;;6.75;70.28;99198.50;1736933;81;20239;-85
2021/11/06 02:09:11;;;;;;;;;;;;;;;6.74;70.29;99198.10;1736054;81;24731;-86
2021/11/06 02:11:38;;;;;;;;;;;;;;;6.74;70.32;99195.50;1734144;82;22715;-85
2021/11/06 02:14:04;;;;;;;;;;;;;;;6.71;70.34;99195.61;1735854;81;25980;-85
2021/11/06 02:16:31;;;;;;;;;;;;;;;6.69;70.34;99202.66;1735986;81;24438;-85
2021/11/06 02:18:58;;;;;;;;;;;;;;;6.65;70.36;99195.90;1736226;82;20331;-85
2021/11/06 02:21:24;;;;;;;;;;;;;;;6.62;70.37;99193.41;1715243;83;24477;-85
2021/11/06 02:23:51;;;;;;;;;;;;;;;6.61;70.39;99188.66;1717148;82;22007;-85
2021/11/06 02:26:18;;;;;;;;;;;;;;;6.60;70.42;99186.96;1718159;83;25989;-85
2021/11/06 02:28:51;;;;;;;;;;;;;;;6.58;70.42;99189.25;1718263;83;24439;-85
2021/11/06 02:31:17;;;;;;;;;;;;;;;6.56;70.45;99194.95;1715881;83;20207;-85
2021/11/06 02:33:43;;;;;;;;;;;;;;;6.54;70.48;99196.80;1716739;82;24984;-85
2021/11/06 02:36:10;;;;;;;;;;;;;;;6.53;70.53;99199.00;1718014;83;22746;-85
2021/11/06 02:38:36;;;;;;;;;;;;;;;6.51;70.53;99195.61;1718253;83;24962;-85
2021/11/06 02:41:02;;;;;;;;;;;;;;;6.53;70.55;99201.60;1718123;82;25306;-85
2021/11/06 02:43:28;;;;;;;;;;;;;;;6.53;70.58;99198.55;1714049;83;20209;-85
2021/11/06 02:45:54;;;;;;;;;;;;;;;6.56;70.63;99201.45;1707433;83;24755;-85
2021/11/06 02:48:20;;;;;;;;;;;;;;;6.53;70.65;99197.25;1705739;84;21956;-85
2021/11/06 02:50:46;;;;;;;;;;;;;;;6.56;70.64;99198.86;1707444;84;26576;-85
2021/11/06 02:53:13;;;;;;;;;;;;;;;6.54;70.67;99202.84;1715928;82;24595;-85
2021/11/06 02:55:39;;;;;;;;;;;;;;;6.52;70.66;99203.80;1707555;84;20319;-85
2021/11/06 02:58:05;;;;;;;;;;;;;;;6.49;70.67;99203.94;1712955;83;24762;-85
2021/11/06 03:00:32;;;;;;;;;;;;;;;6.46;70.69;99204.05;1715856;83;21989;-85
2021/11/06 03:02:59;;;;;;;;;;;;;;;6.43;70.69;99206.34;1707114;83;26031;-85
2021/11/06 03:05:26;;;;;;;;;;;;;;;6.42;70.70;99218.09;1714018;83;24406;-85
2021/11/06 03:07:52;;;;;;;;;;;;;;;6.39;70.72;99219.50;1714402;83;20164;-85
2021/11/06 03:10:18;;;;;;;;;;;;;;;6.39;70.75;99223.39;1716003;83;24837;-85
2021/11/06 03:12:45;;;;;;;;;;;;;;;6.34;70.74;99217.09;1715761;83;22120;-85
2021/11/06 03:15:11;;;;;;;;;;;;;;;6.36;70.79;99225.68;1715759;83;26034;-85
2021/11/06 03:17:37;;;;;;;;;;;;;;;6.36;70.81;99224.83;1715782;83;24408;-85
2021/11/06 03:20:04;;;;;;;;;;;;;;;6.36;70.84;99217.03;1715936;83;20449;-86
2021/11/06 03:22:32;;;;;;;;;;;;;;;6.34;70.84;99222.73;1715652;83;25163;-85
2021/11/06 03:24:59;;;;;;;;;;;;;;;6.33;70.88;99222.38;1715987;83;22101;-86
2021/11/06 03:27:25;;;;;;;;;;;;;;;6.33;70.92;99223.67;1715830;83;26769;-86
2021/11/06 03:29:51;;;;;;;;;;;;;;;6.32;70.93;99225.88;1715322;82;24437;-85
2021/11/06 03:32:17;;;;;;;;;;;;;;;6.32;70.97;99233.67;1715581;83;20160;-85
2021/11/06 03:34:44;;;;;;;;;;;;;;;6.31;70.98;99231.52;1707217;83;24648;-85
2021/11/06 03:37:12;;;;;;;;;;;;;;;6.31;71.00;99240.62;1715892;82;22748;-85
2021/11/06 03:39:38;;;;;;;;;;;;;;;6.30;71.02;99235.02;1715792;83;26050;-86
2021/11/06 03:42:05;;;;;;;;;;;;;;;6.28;71.04;99243.33;1715540;83;24465;-85
2021/11/06 03:44:31;;;;;;;;;;;;;;;6.29;71.06;99243.27;1714145;81;20291;-85
2021/11/06 03:46:59;;;;;;;;;;;;;;;6.23;71.07;99242.21;1680801;83;25564;-85
2021/11/06 03:49:26;;;;;;;;;;;;;;;6.24;71.10;99247.80;1696614;83;22108;-85
2021/11/06 03:51:52;;;;;;;;;;;;;;;6.26;71.11;99251.66;1722803;82;26026;-85
2021/11/06 03:54:18;;;;;;;;;;;;;;;6.24;71.12;99254.75;1735326;81;24507;-85
2021/11/06 03:56:46;;;;;;;;;;;;;;;6.23;71.15;99245.26;1742287;82;20208;-86
2021/11/06 03:59:12;;;;;;;;;;;;;;;6.21;71.14;99251.84;1736137;82;20729;-86
2021/11/06 04:01:43;;;;;;;;;;;;;;;6.15;71.15;99253.37;1722975;83;20151;-83
2021/11/06 04:04:10;;;;;;;;;;;;;;;6.15;71.16;99251.23;1723191;83;25948;-85
2021/11/06 04:06:36;;;;;;;;;;;;;;;6.13;71.19;99259.07;1735904;81;25283;-85
2021/11/06 04:09:03;;;;;;;;;;;;;;;6.14;71.18;99260.77;1735947;82;20216;-85
2021/11/06 04:11:29;;;;;;;;;;;;;;;6.17;71.21;99260.64;1718179;83;24764;-85
2021/11/06 04:13:55;;;;;;;;;;;;;;;6.22;71.27;99260.00;1718547;83;21980;-85
2021/11/06 04:16:21;;;;;;;;;;;;;;;6.23;71.31;99264.30;1735871;81;25951;-85
2021/11/06 04:18:49;;;;;;;;;;;;;;;6.28;71.34;99263.67;1723327;83;20610;-85
2021/11/06 04:21:16;;;;;;;;;;;;;;;6.29;71.37;99264.06;1736437;82;20241;-85
2021/11/06 04:23:42;;;;;;;;;;;;;;;6.27;71.40;99258.55;1736286;81;24790;-84
2021/11/06 04:26:09;;;;;;;;;;;;;;;6.29;71.43;99254.97;1723391;83;22033;-85
2021/11/06 04:28:36;;;;;;;;;;;;;;;6.30;71.45;99254.52;1723556;83;25989;-84
2021/11/06 04:31:02;;;;;;;;;;;;;;;6.30;71.49;99259.27;1723385;83;24499;-84
2021/11/06 04:33:28;;;;;;;;;;;;;;;6.32;71.50;99255.77;1723641;81;20289;-86
2021/11/06 04:35:54;;;;;;;;;;;;;;;6.32;71.53;99260.52;1736296;82;24762;-84
2021/11/06 04:38:21;;;;;;;;;;;;;;;6.33;71.52;99265.27;1736211;82;21920;-85
2021/11/06 04:40:47;;;;;;;;;;;;;;;6.33;71.55;99267.86;1732651;81;25932;-85
2021/11/06 04:43:13;;;;;;;;;;;;;;;6.33;71.58;99266.56;1736093;81;25200;-85
2021/11/06 04:45:39;;;;;;;;;;;;;;;6.34;71.58;99268.23;1747972;80;20277;-85
2021/11/06 04:48:06;;;;;;;;;;;;;;;6.30;71.59;99266.22;1736542;82;24818;-85
2021/11/06 04:50:32;;;;;;;;;;;;;;;6.27;71.62;99267.65;1736465;81;22062;-85
2021/11/06 04:52:59;;;;;;;;;;;;;;;6.29;71.64;99274.91;1736486;81;25980;-85
2021/11/06 04:55:25;;;;;;;;;;;;;;;6.29;71.67;99270.56;1736414;82;23974;-84
2021/11/06 04:57:51;;;;;;;;;;;;;;;6.28;71.69;99266.27;1736355;81;20219;-84
2021/11/06 05:00:17;;;;;;;;;;;;;;;6.27;71.70;99280.16;1736052;81;24981;-85
2021/11/06 05:02:44;;;;;;;;;;;;;;;6.27;71.71;99281.46;1736496;82;21992;-84
2021/11/06 05:05:11;;;;;;;;;;;;;;;6.26;71.73;99278.95;1736668;81;25979;-84
2021/11/06 05:07:37;;;;;;;;;;;;;;;6.26;71.76;99278.95;1736349;81;24558;-85
2021/11/06 05:10:04;;;;;;;;;;;;;;;6.26;71.77;99282.84;1736546;81;20310;-85
2021/11/06 05:12:30;;;;;;;;;;;;;;;6.25;71.79;99288.94;1736653;82;24742;-85
2021/11/06 05:14:56;;;;;;;;;;;;;;;6.24;71.81;99291.99;1736608;81;21789;-85
2021/11/06 05:17:22;;;;;;;;;;;;;;;6.26;71.84;99297.98;1736762;82;26040;-85
2021/11/06 05:19:49;;;;;;;;;;;;;;;6.26;71.87;99299.29;1736398;82;24393;-85
2021/11/06 05:22:17;;;;;;;;;;;;;;;6.26;71.90;99297.14;1736375;82;20186;-85
2021/11/06 05:24:43;;;;;;;;;;;;;;;6.28;71.94;99300.05;1735591;82;24883;-85
2021/11/06 05:27:09;;;;;;;;;;;;;;;6.26;71.96;99304.48;1734487;82;22174;-85
2021/11/06 05:29:36;;;;;;;;;;;;;;;6.26;71.96;99308.38;1736345;82;25648;-85
2021/11/06 05:32:02;;;;;;;;;;;;;;;6.28;72.00;99305.25;1736470;82;24611;-85
2021/11/06 05:34:28;;;;;;;;;;;;;;;6.30;72.02;99313.85;1736090;82;20305;-85
2021/11/06 05:36:55;;;;;;;;;;;;;;;6.30;72.04;99310.41;1736058;82;24801;-85
2021/11/06 05:39:23;;;;;;;;;;;;;;;6.32;72.04;99312.95;1749349;80;22620;-84
2021/11/06 05:41:49;;;;;;;;;;;;;;;6.34;72.08;99316.32;1679649;82;26151;-84
2021/11/06 05:44:15;;;;;;;;;;;;;;;6.33;72.08;99315.95;1746277;80;24429;-84
2021/11/06 05:46:42;;;;;;;;;;;;;;;6.35;72.11;99319.31;1735583;81;20370;-85
2021/11/06 05:49:08;;;;;;;;;;;;;;;6.35;72.12;99321.47;1717844;83;24823;-85
2021/11/06 05:51:34;;;;;;;;;;;;;;;6.34;72.13;99319.77;1717792;83;21942;-85
2021/11/06 05:54:00;;;;;;;;;;;;;;;6.35;72.14;99327.11;1735259;81;26180;-86
2021/11/06 05:56:27;;;;;;;;;;;;;;;6.36;72.14;99333.56;1671916;83;24447;-85
2021/11/06 05:58:53;;;;;;;;;;;;;;;6.35;72.19;99330.56;1735354;81;20315;-84
2021/11/06 06:01:20;;;;;;;;;;;;;;;6.38;72.19;99334.37;1734213;81;24732;-85
2021/11/06 06:03:46;;;;;;;;;;;;;;;6.39;72.20;99336.48;1669665;83;22001;-85
2021/11/06 06:06:12;;;;;;;;;;;;;;;6.41;72.24;99336.83;1734874;81;26046;-85
2021/11/06 06:08:38;;;;;;;;;;;;;;;6.43;72.25;99338.93;1735602;81;24323;-85
2021/11/06 06:11:04;;;;;;;;;;;;;;;6.47;72.29;99344.85;1717755;83;20216;-85
2021/11/06 06:13:30;;;;;;;;;;;;;;;6.48;72.29;99343.50;1717810;82;24785;-85
2021/11/06 06:15:57;;;;;;;;;;;;;;;6.53;72.30;99345.47;1718570;82;22035;-84
2021/11/06 06:18:26;;;;;;;;;;;;;;;6.55;72.32;99348.83;1717661;83;26128;-84
2021/11/06 06:20:52;;;;;;;;;;;;;;;6.54;72.34;99347.16;1717583;83;24603;-84
2021/11/06 06:23:18;;;;;;;;;;;;;;;6.57;72.35;99350.94;1735433;82;20287;-84
2021/11/06 06:25:44;;;;;;;;;;;;;;;6.60;72.39;99355.19;1717666;83;24777;-84
2021/11/06 06:28:11;;;;;;;;;;;;;;;6.63;72.41;99353.75;1735236;81;22024;-84
2021/11/06 06:30:38;;;;;;;;;;;;;;;6.65;72.40;99354.09;1717799;83;25975;-84
2021/11/06 06:33:05;;;;;;;;;;;;;;;6.68;72.44;99357.86;1717455;82;24523;-85
2021/11/06 06:35:31;;;;;;;;;;;;;;;6.73;72.45;99360.28;1717461;82;20279;-85
2021/11/06 06:38:00;;;;;;;;;;;;;;;6.73;72.46;99363.73;1735243;81;24244;-85
2021/11/06 06:40:27;;;;;;;;;;;;;;;6.75;72.45;99364.12;1673482;83;22628;-85
2021/11/06 06:42:55;;;;;;;;;;;;;;;6.79;72.47;99367.84;1724321;82;25985;-85
2021/11/06 06:45:22;;;;;;;;;;;;;;;6.80;72.48;99364.34;1735180;81;24533;-85
2021/11/06 06:47:52;;;;;;;;;;;;;;;6.79;72.46;99368.30;1706152;82;20262;-84
2021/11/06 06:50:19;;;;;;;;;;;;;;;6.80;72.45;99370.00;1736881;82;20175;-85
2021/11/06 06:52:46;;;;;;;;;;;;;;;6.87;72.47;99371.45;1735653;81;20219;-84
2021/11/06 06:55:12;;;;;;;;;;;;;;;6.91;72.49;99376.47;1681204;83;25959;-84
2021/11/06 06:57:38;;;;;;;;;;;;;;;6.95;72.47;99379.78;1724095;82;24501;-83
2021/11/06 07:00:06;;;;;;;;;;;;;;;6.94;72.46;99381.54;1732443;81;20276;-84
2021/11/06 07:02:32;;;;;;;;;;;;;;;6.97;72.47;99382.73;1736345;81;25446;-85
2021/11/06 07:05:00;;;;;;;;;;;;;;;7.01;72.46;99384.30;1715790;83;22153;-84
2021/11/06 07:07:26;;;;;;;;;;;;;;;7.06;72.48;99386.70;1717146;83;25487;-84
2021/11/06 07:09:52;;;;;;;;;;;;;;;7.12;72.48;99387.77;1717631;83;24588;-85
2021/11/06 07:12:18;;;;;;;;;;;;;;;7.13;72.48;99391.62;1717642;83;20325;-85
2021/11/06 07:14:46;;;;;;;;;;;;;;;7.18;72.49;99394.48;1717735;83;24743;-84
2021/11/06 07:17:12;;;;;;;;;;;;;;;7.19;72.44;99396.17;1717090;83;22153;-85
2021/11/06 07:19:38;;;;;;;;;;;;;;;7.25;72.46;99391.58;1717333;83;25973;-85
2021/11/06 07:22:06;;;;;;;;;;;;;;;7.35;72.44;99395.94;1717702;83;24425;-84
2021/11/06 07:24:32;;;;;;;;;;;;;;;7.40;72.47;99397.89;1717675;83;20286;-84
2021/11/06 07:26:58;;;;;;;;;;;;;;;7.41;72.45;99400.45;1715219;83;25627;-85
2021/11/06 07:29:24;;;;;;;;;;;;;;;7.44;72.40;99405.52;1717646;83;21970;-84
2021/11/06 07:31:50;;;;;;;;;;;;;;;7.45;72.35;99408.52;1716399;83;26036;-84
2021/11/06 07:34:18;;;;;;;;;;;;;;;7.51;72.33;99406.11;1717584;83;25346;-84
2021/11/06 07:36:45;;;;;;;;;;;;;;;7.51;72.28;99412.63;1716157;82;20850;-85
2021/11/06 07:39:11;;;;;;;;;;;;;;;7.49;72.24;99412.67;1717322;83;25557;-85
2021/11/06 07:41:38;;;;;;;;;;;;;;;7.51;72.18;99419.13;1717764;83;21984;-85
2021/11/06 07:44:04;;;;;;;;;;;;;;;7.52;72.15;99420.38;1734134;81;26758;-85
2021/11/06 07:46:32;;;;;;;;;;;;;;;7.53;72.12;99421.20;1711538;82;20179;-86
2021/11/06 07:48:58;;;;;;;;;;;;;;;7.57;72.08;99422.78;1727501;81;20164;-84
2021/11/06 07:51:28;;;;;;;;;;;;;;;7.58;72.03;99425.30;1737420;81;24801;-84
2021/11/06 07:53:54;;;;;;;;;;;;;;;7.58;71.98;99425.79;1736479;81;22158;-84
2021/11/06 07:56:20;;;;;;;;;;;;;;;7.59;71.93;99426.16;1727416;81;25975;-84
2021/11/06 07:58:46;;;;;;;;;;;;;;;7.61;71.88;99428.70;1724871;83;24429;-85
2021/11/06 08:01:12;;;;;;;;;;;;;;;7.64;71.87;99429.89;1726278;81;20249;-84
2021/11/06 08:03:39;;;;;;;;;;;;;;;7.66;71.85;99432.81;1736564;81;25687;-84
2021/11/06 08:06:05;;;;;;;;;;;;;;;7.69;71.80;99428.76;1737903;82;21966;-85
2021/11/06 08:08:32;;;;;;;;;;;;;;;7.71;71.76;99424.34;1738438;81;26031;-84
2021/11/06 08:10:59;;;;;;;;;;;;;;;7.74;71.73;99422.92;1737372;82;25107;-84
2021/11/06 08:13:26;;;;;;;;;;;;;;;7.81;71.72;99421.73;1675783;83;20279;-84
2021/11/06 08:15:52;;;;;;;;;;;;;;;7.86;71.73;99429.34;1726522;81;24818;-83
2021/11/06 08:18:18;;;;;;;;;;;;;;;7.87;71.68;99421.47;1726668;82;22015;-83
2021/11/06 08:20:44;;;;;;;;;;;;;;;7.93;71.64;99429.03;1727122;83;25970;-84
2021/11/06 08:23:13;;;;;;;;;;;;;;;7.94;71.60;99426.81;1727180;82;24473;-84
2021/11/06 08:25:45;;;;;;;;;;;;;;;7.99;71.56;99433.12;1727268;81;20349;-84
2021/11/06 08:28:06;;;;;;;;;;;;;;;8.02;71.54;99434.28;1725306;82;24730;-85
2021/11/06 08:30:33;;;;;;;;;;;;;;;8.06;71.49;99436.32;1727364;81;22130;-85
2021/11/06 08:32:59;;;;;;;;;;;;;;;8.10;71.47;99432.20;1727254;81;25969;-85
2021/11/06 08:35:27;;;;;;;;;;;;;;;8.15;71.44;99435.45;1726579;83;20260;-85
2021/11/06 08:37:53;;;;;;;;;;;;;;;8.16;71.40;99434.55;1737621;81;20493;-84
2021/11/06 08:40:19;;;;;;;;;;;;;;;8.19;71.33;99438.31;1738214;81;20283;-84
2021/11/06 08:42:45;;;;;;;;;;;;;;;8.21;71.28;99435.19;1681269;83;22544;-85
2021/11/06 08:45:12;;;;;;;;;;;;;;;8.27;71.25;99434.08;1739638;80;21186;-85
2021/11/06 08:47:38;;;;;;;;;;;;;;;8.30;71.23;99436.56;1713146;82;24708;-85
2021/11/06 08:50:05;;;;;;;;;;;;;;;8.31;71.17;99443.02;1736414;82;20320;-85
2021/11/06 08:52:31;;;;;;;;;;;;;;;8.31;71.11;99443.47;1749215;80;24842;-85
2021/11/06 08:54:57;;;;;;;;;;;;;;;8.29;71.04;99447.91;1745816;80;20258;-85
2021/11/06 08:57:24;;;;;;;;;;;;;;;8.30;70.98;99447.84;1696505;82;20886;-85
2021/11/06 08:59:54;;;;;;;;;;;;;;;8.31;70.91;99452.60;1735384;81;25392;-85
2021/11/06 09:02:18;;;;;;;;;;;;;;;8.32;70.85;99451.70;1735147;81;20487;-85
2021/11/06 09:04:45;;;;;;;;;;;;;;;8.36;70.81;99458.46;1747548;80;24727;-85
2021/11/06 09:07:11;;;;;;;;;;;;;;;8.41;70.81;99446.06;1748346;82;22012;-85
2021/11/06 09:09:38;;;;;;;;;;;;;;;8.43;70.77;99446.84;1747618;80;20890;-85
2021/11/06 09:12:05;;;;;;;;;;;;;;;8.46;70.74;99451.91;1748588;80;24435;-85
2021/11/06 09:14:32;;;;;;;;;;;;;;;8.51;70.70;99450.43;1748175;80;21416;-85
2021/11/06 09:17:00;;;;;;;;;;;;;;;8.54;70.66;99441.99;1760443;80;24917;-85
2021/11/06 09:19:26;;;;;;;;;;;;;;;8.54;70.59;99446.36;1718434;82;22215;-85
2021/11/06 09:21:52;;;;;;;;;;;;;;;8.55;70.50;99451.52;1736750;82;20959;-85
2021/11/06 09:24:19;;;;;;;;;;;;;;;8.56;70.43;99451.06;1738056;81;24432;-84
2021/11/06 09:26:45;;;;;;;;;;;;;;;8.61;70.38;99451.24;1749314;80;20329;-85
2021/11/06 09:29:13;;;;;;;;;;;;;;;8.64;70.31;99456.77;1730929;83;24808;-85
2021/11/06 09:31:45;;;;;;;;;;;;;;;8.64;70.23;99456.77;1730760;83;22602;-85
2021/11/06 09:34:11;;;;;;;;;;;;;;;8.62;70.11;99457.31;1731022;83;26042;-85
2021/11/06 09:36:37;;;;;;;;;;;;;;;8.62;70.02;99463.34;1731072;82;24344;-85
2021/11/06 09:39:05;;;;;;;;;;;;;;;8.64;69.96;99453.70;1731212;81;20306;-85
2021/11/06 09:41:32;;;;;;;;;;;;;;;8.66;69.90;99455.79;1749353;80;24716;-85
2021/11/06 09:43:58;;;;;;;;;;;;;;;8.72;69.82;99456.82;1689899;82;22042;-85
2021/11/06 09:46:25;;;;;;;;;;;;;;;8.74;69.78;99447.14;1719228;80;25358;-84
2021/11/06 09:48:51;;;;;;;;;;;;;;;8.79;69.73;99452.14;1690268;83;25382;-85
2021/11/06 09:51:18;;;;;;;;;;;;;;;8.85;69.68;99441.88;1698964;84;20269;-85
2021/11/06 09:53:46;;;;;;;;;;;;;;;8.91;69.62;99445.05;1692781;83;24738;-85
2021/11/06 09:56:13;;;;;;;;;;;;;;;8.98;69.57;99439.08;1694014;83;21481;-85
2021/11/06 09:58:42;;;;;;;;;;;;;;;9.03;69.54;99438.41;1691863;83;26734;-84
2021/11/06 10:01:09;;;;;;;;;;;;;;;9.06;69.50;99428.65;1665602;85;24428;-84
2021/11/06 10:03:36;;;;;;;;;;;;;;;9.15;69.47;99429.99;1695671;84;20293;-84
2021/11/06 10:06:03;;;;;;;;;;;;;;;9.21;69.42;99426.63;1692988;83;24761;-84
2021/11/06 10:08:37;;;;;;;;;;;;;;;9.24;69.35;99425.62;1677459;84;22087;-84
2021/11/06 10:11:05;;;;;;;;;;;;;;;9.34;69.29;99420.78;1694840;83;26771;-84
2021/11/06 10:13:32;;;;;;;;;;;;;;;9.40;69.24;99420.03;1693110;83;24638;-84
2021/11/06 10:15:59;;;;;;;;;;;;;;;9.47;69.17;99415.36;1687391;83;20547;-85
2021/11/06 10:18:27;;;;;;;;;;;;;;;9.54;69.12;99418.05;1653192;85;24603;-84
2021/11/06 10:21:03;;;;;;;;;;;;;;;9.59;69.07;99416.91;1692038;83;22038;-84
2021/11/06 10:23:31;;;;;;;;;;;;;;;9.65;69.03;99407.91;1697170;83;26089;-85
2021/11/06 10:26:06;;;;;;;;;;;;;;;9.71;68.96;99408.06;1679780;84;25267;-84
2021/11/06 10:28:30;;;;;;;;;;;;;;;9.77;68.89;99403.80;1678575;84;20352;-84
2021/11/06 10:30:58;;;;;;;;;;;;;;;9.80;68.82;99399.28;1680790;85;25439;-84
2021/11/06 10:33:25;;;;;;;;;;;;;;;9.86;68.73;99396.81;1680271;84;21695;-84
2021/11/06 10:35:52;;;;;;;;;;;;;;;9.91;68.64;99400.88;1681393;85;25679;-84
2021/11/06 10:38:27;;;;;;;;;;;;;;;9.97;68.50;99399.72;1681342;84;25273;-84
2021/11/06 10:41:07;;;;;;;;;;;;;;;9.99;68.37;99400.02;1678854;84;20444;-84
2021/11/06 10:43:35;;;;;;;;;;;;;;;10.05;68.24;99397.54;1679096;84;24874;-83
2021/11/06 10:46:01;;;;;;;;;;;;;;;10.11;68.12;99386.76;1690174;83;21983;-84
2021/11/06 10:48:30;;;;;;;;;;;;;;;10.11;67.97;99378.06;1737597;81;26005;-84
2021/11/06 10:51:05;;;;;;;;;;;;;;;10.19;67.76;99389.02;1706832;82;25500;-84
2021/11/06 10:53:33;;;;;;;;;;;;;;;10.19;67.59;99389.86;1734062;81;20240;-83
2021/11/06 10:56:00;;;;;;;;;;;;;;;10.22;67.42;99390.14;1736145;82;24767;-84
2021/11/06 10:58:28;;;;;;;;;;;;;;;10.21;67.26;99385.38;1723833;81;21979;-84
2021/11/06 11:00:55;;;;;;;;;;;;;;;10.19;67.07;99385.94;1729596;81;26013;-84
2021/11/06 11:03:23;;;;;;;;;;;;;;;10.21;66.92;99378.83;1736320;81;24445;-84
2021/11/06 11:05:49;;;;;;;;;;;;;;;10.25;66.81;99376.45;1734284;82;20343;-84
2021/11/06 11:08:15;;;;;;;;;;;;;;;10.27;66.67;99377.66;1723605;82;20244;-84
2021/11/06 11:10:43;;;;;;;;;;;;;;;10.28;66.55;99374.13;1734395;81;22095;-84
2021/11/06 11:13:10;;;;;;;;;;;;;;;10.31;66.47;99377.41;1735349;81;25967;-84
2021/11/06 11:15:36;;;;;;;;;;;;;;;10.37;66.38;99370.55;1736141;82;23681;-84
2021/11/06 11:18:03;;;;;;;;;;;;;;;10.43;66.28;99361.52;1736151;81;20224;-84
2021/11/06 11:20:30;;;;;;;;;;;;;;;10.46;66.17;99357.44;1735849;81;25505;-84
2021/11/06 11:23:13;;;;;;;;;;;;;;;10.47;66.01;99356.03;1735520;81;22211;-84
2021/11/06 11:25:40;;;;;;;;;;;;;;;10.52;65.86;99353.19;1700927;82;26096;-84
2021/11/06 11:28:15;;;;;;;;;;;;;;;10.58;65.71;99353.31;1703224;82;24539;-83
2021/11/06 11:30:39;;;;;;;;;;;;;;;10.63;65.57;99346.05;1699435;83;20229;-84
2021/11/06 11:33:08;;;;;;;;;;;;;;;10.65;65.39;99350.71;1709173;82;25596;-84
2021/11/06 11:35:34;;;;;;;;;;;;;;;10.70;65.23;99342.14;1707019;82;22223;-84
2021/11/06 11:38:01;;;;;;;;;;;;;;;10.75;65.06;99340.10;1724738;83;25931;-84
2021/11/06 11:40:29;;;;;;;;;;;;;;;10.81;64.93;99335.38;1723830;81;24438;-84
2021/11/06 11:43:15;;;;;;;;;;;;;;;10.87;64.75;99342.04;1729059;81;20215;-84
2021/11/06 11:45:43;;;;;;;;;;;;;;;10.93;64.56;99338.23;1728557;81;24931;-84
2021/11/06 11:48:14;;;;;;;;;;;;;;;11.01;64.40;99334.27;1734925;81;21930;-84
2021/11/06 11:50:42;;;;;;;;;;;;;;;11.07;64.19;99335.22;1731774;81;25619;-84
2021/11/06 11:53:09;;;;;;;;;;;;;;;11.15;64.06;99328.21;1734219;81;24691;-85
2021/11/06 11:55:45;;;;;;;;;;;;;;;11.20;63.87;99319.16;1731246;81;20279;-84
2021/11/06 11:58:18;;;;;;;;;;;;;;;11.24;63.65;99320.66;1735755;81;24522;-84
2021/11/06 12:00:49;;;;;;;;;;;;;;;11.27;63.47;99317.88;1700619;83;22747;-85
2021/11/06 12:03:34;;;;;;;;;;;;;;;11.32;63.29;99318.91;1692533;83;26678;-84
2021/11/06 12:06:02;;;;;;;;;;;;;;;11.33;63.12;99308.81;1721697;83;24462;-84
2021/11/06 12:08:29;;;;;;;;;;;;;;;11.36;62.88;99311.70;1720703;83;20220;-84
2021/11/06 12:11:01;;;;;;;;;;;;;;;11.37;62.63;99319.94;1723139;81;26356;-83
2021/11/06 12:13:31;;;;;;;;;;;;;;;11.37;62.44;99314.70;1721619;83;21994;-84
2021/11/06 12:16:06;;;;;;;;;;;;;;;11.41;62.31;99308.34;1723410;83;26006;-84
2021/11/06 12:18:36;;;;;;;;;;;;;;;11.42;62.13;99309.56;1723439;82;24442;-83
2021/11/06 12:21:24;;;;;;;;;;;;;;;11.40;61.94;99298.31;1723566;83;20341;-83
2021/11/06 12:23:55;;;;;;;;;;;;;;;11.43;61.73;99296.84;1718396;82;24891;-84
2021/11/06 12:26:28;;;;;;;;;;;;;;;11.42;61.46;99289.06;1723702;83;22923;-84
2021/11/06 12:29:07;;;;;;;;;;;;;;;11.40;61.17;99288.33;1721759;83;26931;-84
2021/11/06 12:31:37;;;;;;;;;;;;;;;11.41;60.97;99287.37;1723454;83;24421;-84
2021/11/06 12:34:03;;;;;;;;;;;;;;;11.42;60.79;99280.73;1722885;82;20326;-84
2021/11/06 12:36:32;;;;;;;;;;;;;;;11.45;60.69;99284.50;1723389;83;24801;-84
2021/11/06 12:39:00;;;;;;;;;;;;;;;11.42;60.51;99282.05;1723369;83;22119;-84
2021/11/06 12:41:30;;;;;;;;;;;;;;;11.39;60.36;99273.53;1723273;82;26792;-84
2021/11/06 12:43:56;;;;;;;;;;;;;;;11.37;60.25;99271.46;1724164;81;24446;-84
2021/11/06 12:46:25;;;;;;;;;;;;;;;11.41;60.19;99270.34;1721409;83;20219;-84
2021/11/06 12:48:52;;;;;;;;;;;;;;;11.44;60.08;99274.10;1722981;83;24727;-84
2021/11/06 12:51:20;;;;;;;;;;;;;;;11.43;59.96;99279.80;1723363;83;22770;-83
2021/11/06 12:53:48;;;;;;;;;;;;;;;11.44;59.85;99272.79;1722620;81;26709;-83
2021/11/06 12:56:24;;;;;;;;;;;;;;;11.46;59.77;99272.20;1722644;83;25447;-84